Time;durP1;ratioP1;P1;durP2;ratioP2;P2;SDS_P1;SDS_P2;PMS_P1;PMS_P2;Temp;Humidity;BMP_temperature;BMP_pressure;BME280_temperature;BME280_humidity;BME280_pressure;Samples;Min_cycle;Max_cycle;Signal;HPM_P1;HPM_P2
2021/12/11 00:00:29;;;;;;;29.47;17.23;;;8.30;99.90;;;;;;5072745;28;20224;-65
2021/12/11 00:03:00;;;;;;;33.17;18.60;;;8.20;99.90;;;;;;5073424;28;20203;-65
2021/12/11 00:05:27;;;;;;;31.63;18.23;;;8.20;99.90;;;;;;5072876;28;20651;-65
2021/12/11 00:07:55;;;;;;;33.63;18.60;;;8.20;99.90;;;;;;5072809;28;20216;-65
2021/12/11 00:10:29;;;;;;;29.20;17.37;;;8.20;99.90;;;;;;5073348;28;20201;-68
2021/12/11 00:12:58;;;;;;;29.13;17.00;;;8.20;99.90;;;;;;5072830;28;20534;-66
2021/12/11 00:15:30;;;;;;;31.00;18.00;;;8.20;99.90;;;;;;5072397;28;20219;-66
2021/12/11 00:17:59;;;;;;;30.00;17.70;;;8.20;99.90;;;;;;5072704;28;20193;-65
2021/12/11 00:20:30;;;;;;;37.07;18.57;;;8.20;99.90;;;;;;5072520;28;20229;-65
2021/12/11 00:22:57;;;;;;;29.10;17.60;;;8.20;99.90;;;;;;5072121;28;20193;-65
2021/12/11 00:25:26;;;;;;;31.37;17.87;;;8.10;99.90;;;;;;5072656;28;20200;-64
2021/12/11 00:28:04;;;;;;;30.43;17.53;;;8.10;99.90;;;;;;5072212;28;20681;-65
2021/12/11 00:30:35;;;;;;;28.67;18.27;;;8.10;99.90;;;;;;5072524;28;20196;-66
2021/12/11 00:33:06;;;;;;;32.77;18.40;;;8.00;99.90;;;;;;5072216;28;20193;-66
2021/12/11 00:35:34;;;;;;;31.97;17.70;;;8.00;99.90;;;;;;5071618;28;20193;-65
2021/12/11 00:38:05;;;;;;;31.83;17.93;;;8.00;99.90;;;;;;5072257;28;20568;-66
2021/12/11 00:40:34;;;;;;;31.93;17.90;;;8.00;99.90;;;;;;5072118;28;20215;-65
2021/12/11 00:43:04;;;;;;;30.80;17.90;;;8.00;99.90;;;;;;5072277;28;20207;-65
2021/12/11 00:45:38;;;;;;;28.90;18.13;;;8.00;99.90;;;;;;5072150;28;20204;-65
2021/12/11 00:48:10;;;;;;;32.20;18.70;;;8.00;99.90;;;;;;5071809;28;20203;-66
2021/12/11 00:50:41;;;;;;;29.30;18.17;;;8.00;99.90;;;;;;5071991;28;20240;-66
2021/12/11 00:53:13;;;;;;;31.77;18.13;;;8.00;99.90;;;;;;5071926;28;20212;-66
2021/12/11 00:55:43;;;;;;;29.50;18.43;;;8.00;99.90;;;;;;5072114;28;20204;-66
2021/12/11 00:58:13;;;;;;;31.20;18.93;;;8.00;99.90;;;;;;5072002;28;20197;-65
2021/12/11 01:00:45;;;;;;;34.73;19.77;;;7.90;99.90;;;;;;5072001;28;20224;-65
2021/12/11 01:03:15;;;;;;;33.30;19.33;;;7.90;99.90;;;;;;5072255;28;20189;-66
2021/12/11 01:05:46;;;;;;;34.83;20.47;;;7.90;99.90;;;;;;5071453;28;20212;-66
2021/12/11 01:08:19;;;;;;;37.50;20.20;;;7.90;99.90;;;;;;5071955;28;20568;-65
2021/12/11 01:10:49;;;;;;;36.13;20.10;;;7.90;99.90;;;;;;5071859;28;20181;-65
2021/12/11 01:13:20;;;;;;;39.13;20.83;;;7.90;99.90;;;;;;5072012;28;20219;-64
2021/12/11 01:15:54;;;;;;;36.90;21.27;;;7.90;99.90;;;;;;5071382;28;20231;-65
2021/12/11 01:18:34;;;;;;;33.63;21.30;;;7.90;99.90;;;;;;5070857;28;20200;-64
2021/12/11 01:21:08;;;;;;;36.27;20.70;;;7.90;99.90;;;;;;5071729;28;20307;-66
2021/12/11 01:24:07;;;;;;;39.63;23.13;;;7.90;99.90;;;;;;5071898;28;20283;-65
2021/12/11 01:26:40;;;;;;;38.47;23.27;;;7.90;99.90;;;;;;5071760;28;20239;-64
2021/12/11 01:29:07;;;;;;;39.53;24.13;;;7.90;99.90;;;;;;5071177;28;20193;-65
2021/12/11 01:31:34;;;;;;;41.70;24.60;;;7.90;99.90;;;;;;5071408;28;20217;-66
2021/12/11 01:34:02;;;;;;;40.33;24.73;;;7.90;99.90;;;;;;5071901;28;20822;-65
2021/12/11 01:36:31;;;;;;;40.00;25.10;;;7.90;99.90;;;;;;5070490;28;20197;-66
2021/12/11 01:39:00;;;;;;;43.03;25.30;;;7.90;99.90;;;;;;5071311;28;20213;-65
2021/12/11 01:41:28;;;;;;;42.27;25.90;;;7.90;99.90;;;;;;5070394;28;20199;-66
2021/12/11 01:44:00;;;;;;;44.17;26.30;;;7.90;99.90;;;;;;5070515;28;20192;-66
2021/12/11 01:46:28;;;;;;;54.10;27.50;;;7.90;99.90;;;;;;5080117;28;20192;-67
2021/12/11 01:48:58;;;;;;;46.50;27.17;;;7.90;99.90;;;;;;5070707;28;20217;-65
2021/12/11 01:51:29;;;;;;;48.20;27.53;;;7.90;99.90;;;;;;5070210;28;20286;-64
2021/12/11 01:54:01;;;;;;;46.87;27.17;;;7.90;99.90;;;;;;5071366;28;20199;-65
2021/12/11 01:56:31;;;;;;;42.23;26.00;;;7.90;99.90;;;;;;5075533;28;20559;-65
2021/12/11 01:59:04;;;;;;;43.97;26.27;;;7.80;99.90;;;;;;5075602;28;20201;-65
2021/12/11 02:01:35;;;;;;;49.90;28.17;;;7.90;99.90;;;;;;5075447;28;20189;-65
2021/12/11 02:04:04;;;;;;;48.03;27.60;;;7.90;99.90;;;;;;5075527;28;20207;-65
2021/12/11 02:06:34;;;;;;;42.10;26.50;;;7.90;99.90;;;;;;5075407;28;20675;-64
2021/12/11 02:09:11;;;;;;;45.40;26.70;;;8.00;99.90;;;;;;5075399;28;20201;-66
2021/12/11 02:11:38;;;;;;;42.90;25.90;;;8.00;99.90;;;;;;5075568;28;20201;-65
2021/12/11 02:14:07;;;;;;;44.93;26.10;;;8.00;99.90;;;;;;5075214;28;20200;-66
2021/12/11 02:16:42;;;;;;;41.27;24.53;;;8.00;99.90;;;;;;5075358;28;20567;-65
2021/12/11 02:19:13;;;;;;;41.27;25.10;;;8.10;99.90;;;;;;5074897;28;20220;-65
2021/12/11 02:21:49;;;;;;;43.50;24.63;;;8.00;99.90;;;;;;5075067;28;20189;-66
2021/12/11 02:24:21;;;;;;;40.23;24.73;;;8.10;99.90;;;;;;5074849;28;20192;-66
2021/12/11 02:26:48;;;;;;;39.90;24.30;;;8.00;99.90;;;;;;5075278;28;20656;-65
2021/12/11 02:29:17;;;;;;;38.63;23.23;;;8.10;99.90;;;;;;5074873;28;20208;-65
2021/12/11 02:31:48;;;;;;;39.43;23.30;;;8.10;99.90;;;;;;5075227;28;20223;-65
2021/12/11 02:34:22;;;;;;;38.57;23.40;;;8.10;99.90;;;;;;5074855;28;20288;-66
2021/12/11 02:36:55;;;;;;;34.50;23.27;;;8.20;99.90;;;;;;5075024;28;20204;-64
2021/12/11 02:39:29;;;;;;;36.37;22.60;;;8.20;99.90;;;;;;5074807;28;20220;-65
2021/12/11 02:42:00;;;;;;;37.60;21.47;;;8.20;99.90;;;;;;5074973;28;20196;-65
2021/12/11 02:44:32;;;;;;;40.60;23.63;;;8.20;99.90;;;;;;5074328;28;20196;-65
2021/12/11 02:47:02;;;;;;;38.23;22.30;;;8.20;99.90;;;;;;5074593;28;20189;-63
2021/12/11 02:49:34;;;;;;;36.50;22.60;;;8.20;99.90;;;;;;5074736;28;20185;-65
2021/12/11 02:52:07;;;;;;;34.93;21.73;;;8.20;99.90;;;;;;5074588;28;20236;-63
2021/12/11 02:54:40;;;;;;;35.03;22.53;;;8.20;99.90;;;;;;5074904;28;20275;-66
2021/12/11 02:57:15;;;;;;;34.33;21.57;;;8.20;99.90;;;;;;5074496;28;20626;-65
2021/12/11 02:59:44;;;;;;;38.13;22.37;;;8.10;99.90;;;;;;5075511;28;20578;-65
2021/12/11 03:02:15;;;;;;;38.37;22.83;;;8.10;99.90;;;;;;5074463;28;20216;-64
2021/12/11 03:04:48;;;;;;;34.70;21.63;;;8.10;99.90;;;;;;5078792;28;20189;-64
2021/12/11 03:07:17;;;;;;;39.17;21.97;;;8.10;99.90;;;;;;5093261;28;20224;-65
2021/12/11 03:09:47;;;;;;;35.50;21.00;;;8.10;99.90;;;;;;5094283;28;20236;-66
2021/12/11 03:12:15;;;;;;;35.40;20.57;;;8.10;99.90;;;;;;5094534;28;20192;-66
2021/12/11 03:14:43;;;;;;;33.50;20.37;;;8.10;99.90;;;;;;5089997;28;20197;-64
2021/12/11 03:17:11;;;;;;;33.60;20.90;;;8.10;99.90;;;;;;5074100;28;20215;-65
2021/12/11 03:19:41;;;;;;;33.73;20.87;;;8.10;99.90;;;;;;5074093;28;20239;-64
2021/12/11 03:22:16;;;;;;;34.43;20.10;;;8.10;99.90;;;;;;5082089;28;20196;-64
2021/12/11 03:24:45;;;;;;;35.93;21.47;;;8.10;99.90;;;;;;5094382;28;20637;-65
2021/12/11 03:27:12;;;;;;;34.63;21.47;;;8.10;99.90;;;;;;5093939;28;20208;-65
2021/12/11 03:29:39;;;;;;;29.93;20.50;;;8.10;99.90;;;;;;5093978;28;20214;-65
2021/12/11 03:32:09;;;;;;;34.87;21.27;;;8.10;99.90;;;;;;5086609;28;20193;-65
2021/12/11 03:34:37;;;;;;;30.87;20.00;;;8.10;99.90;;;;;;5074386;28;20642;-66
2021/12/11 03:37:07;;;;;;;31.80;21.03;;;8.10;99.90;;;;;;5092277;28;20566;-64
2021/12/11 03:39:37;;;;;;;33.53;20.50;;;8.10;99.90;;;;;;5094029;28;20633;-66
2021/12/11 03:42:09;;;;;;;36.33;21.30;;;8.20;99.90;;;;;;5092027;28;20550;-66
2021/12/11 03:44:37;;;;;;;33.77;21.67;;;8.20;99.90;;;;;;5093816;28;20196;-65
2021/12/11 03:47:07;;;;;;;37.23;21.70;;;8.20;99.90;;;;;;5093755;28;20660;-65
2021/12/11 03:49:35;;;;;;;36.90;22.33;;;8.20;99.90;;;;;;5093887;28;20196;-66
2021/12/11 03:52:01;;;;;;;30.90;20.90;;;8.10;99.90;;;;;;5076447;28;20228;-67
2021/12/11 03:54:31;;;;;;;32.40;20.93;;;8.10;99.90;;;;;;5073089;28;20216;-64
2021/12/11 03:56:59;;;;;;;32.77;21.67;;;8.10;99.90;;;;;;5073296;28;20205;-64
2021/12/11 03:59:30;;;;;;;31.73;19.37;;;8.10;99.90;;;;;;5073334;28;20538;-65
2021/12/11 04:02:02;;;;;;;32.73;20.63;;;8.10;99.90;;;;;;5088434;28;20208;-67
2021/12/11 04:04:32;;;;;;;30.27;18.53;;;8.10;99.90;;;;;;5091086;28;20640;-63
2021/12/11 04:07:01;;;;;;;30.07;19.30;;;8.10;99.90;;;;;;5093385;28;20210;-65
2021/12/11 04:09:29;;;;;;;28.97;18.73;;;8.10;99.90;;;;;;5093396;28;20204;-66
2021/12/11 04:11:58;;;;;;;28.10;17.87;;;8.10;99.90;;;;;;5077689;28;20283;-64
2021/12/11 04:14:30;;;;;;;31.03;20.00;;;8.10;99.90;;;;;;5073212;28;20201;-65
2021/12/11 04:16:58;;;;;;;30.70;18.57;;;8.10;99.90;;;;;;5072274;28;20200;-65
2021/12/11 04:19:26;;;;;;;29.93;19.70;;;8.10;99.90;;;;;;5072939;28;20579;-66
2021/12/11 04:21:54;;;;;;;27.40;18.10;;;8.10;99.90;;;;;;5087144;28;20570;-65
2021/12/11 04:24:25;;;;;;;30.70;19.37;;;8.10;99.90;;;;;;5093193;28;20200;-64
2021/12/11 04:26:52;;;;;;;30.10;18.57;;;8.10;99.90;;;;;;5093087;28;20560;-65
2021/12/11 04:29:20;;;;;;;30.27;18.83;;;8.10;99.90;;;;;;5089441;28;20204;-65
2021/12/11 04:31:48;;;;;;;31.03;19.93;;;8.10;99.90;;;;;;5092694;28;20196;-64
2021/12/11 04:34:18;;;;;;;29.10;19.47;;;8.10;99.90;;;;;;5093062;28;20204;-64
2021/12/11 04:36:47;;;;;;;31.73;20.83;;;8.10;99.90;;;;;;5092999;28;20680;-65
2021/12/11 04:39:16;;;;;;;33.30;20.80;;;8.10;99.90;;;;;;5086357;28;20211;-65
2021/12/11 04:41:52;;;;;;;26.90;18.53;;;8.10;99.90;;;;;;5072532;28;20574;-64
2021/12/11 04:44:25;;;;;;;29.43;18.90;;;8.10;99.90;;;;;;5072555;28;20621;-64
2021/12/11 04:46:53;;;;;;;29.27;19.80;;;8.10;99.90;;;;;;5072069;28;20207;-65
2021/12/11 04:49:33;;;;;;;30.40;19.20;;;8.10;99.90;;;;;;5071918;28;20211;-65
2021/12/11 04:52:07;;;;;;;30.60;19.30;;;8.10;99.90;;;;;;5071876;28;20251;-66
2021/12/11 04:54:47;;;;;;;31.90;19.97;;;8.10;99.90;;;;;;5072365;28;20192;-66
2021/12/11 05:00:08;;;;;;;29.97;18.87;;;8.20;99.90;;;;;;5091110;28;20474;-65
2021/12/11 05:03:07;;;;;;;35.73;19.87;;;8.20;99.90;;;;;;5092493;28;20194;-65
2021/12/11 05:05:51;;;;;;;28.97;19.10;;;8.10;99.90;;;;;;5092152;28;20189;-66
2021/12/11 05:08:58;;;;;;;33.00;20.87;;;8.10;99.90;;;;;;5087247;28;20238;-65
2021/12/11 05:11:17;;;;;;;29.67;19.43;;;8.10;99.90;;;;;;5071678;28;20683;-65
2021/12/11 05:13:45;;;;;;;32.93;20.03;;;8.10;99.90;;;;;;5071921;28;20208;-65
2021/12/11 05:16:14;;;;;;;32.87;20.47;;;8.10;99.90;;;;;;5071845;28;20220;-65
2021/12/11 05:18:47;;;;;;;32.37;21.07;;;8.10;99.90;;;;;;5079138;28;20231;-67
2021/12/11 05:21:19;;;;;;;31.23;20.17;;;8.10;99.90;;;;;;5092247;28;20688;-65
2021/12/11 05:23:48;;;;;;;34.43;20.97;;;8.00;99.90;;;;;;5091736;28;20525;-64
2021/12/11 05:26:15;;;;;;;30.10;20.13;;;8.10;99.90;;;;;;5082669;28;20208;-66
2021/12/11 05:28:41;;;;;;;36.90;21.33;;;8.00;99.90;;;;;;5071126;28;20201;-65
2021/12/11 05:31:10;;;;;;;32.00;20.57;;;8.10;99.90;;;;;;5071420;28;20197;-65
2021/12/11 05:33:38;;;;;;;32.23;20.03;;;8.00;99.90;;;;;;5072023;28;20207;-65
2021/12/11 05:36:09;;;;;;;33.63;19.93;;;8.00;99.90;;;;;;5071210;28;20295;-66
2021/12/11 05:38:39;;;;;;;33.20;20.57;;;8.00;99.90;;;;;;5071851;28;20280;-65
2021/12/11 05:41:09;;;;;;;34.70;21.80;;;7.90;99.90;;;;;;5071176;28;20254;-65
2021/12/11 05:43:36;;;;;;;32.97;20.23;;;7.90;99.90;;;;;;5071785;28;20216;-65
2021/12/11 05:46:05;;;;;;;36.03;20.40;;;7.90;99.90;;;;;;5073184;28;20197;-65
2021/12/11 05:48:33;;;;;;;36.57;19.70;;;7.90;99.90;;;;;;5072214;28;20208;-65
2021/12/11 05:51:02;;;;;;;30.90;19.30;;;7.90;99.90;;;;;;5071375;28;20232;-67
2021/12/11 05:53:33;;;;;;;32.27;20.53;;;7.90;99.90;;;;;;5071659;28;20208;-65
2021/12/11 05:56:06;;;;;;;32.13;19.80;;;7.90;99.90;;;;;;5071499;28;20196;-65
2021/12/11 05:58:46;;;;;;;33.50;20.40;;;7.90;99.90;;;;;;5076555;28;20242;-66
2021/12/11 06:01:15;;;;;;;33.27;20.50;;;7.90;99.90;;;;;;5091590;28;20207;-65
2021/12/11 06:03:42;;;;;;;37.83;21.80;;;7.90;99.90;;;;;;5091447;28;20208;-66
2021/12/11 06:06:09;;;;;;;35.90;21.07;;;7.90;99.90;;;;;;5091406;28;20208;-65
2021/12/11 06:08:38;;;;;;;38.43;21.00;;;7.90;99.90;;;;;;5086334;28;20271;-67
2021/12/11 06:11:07;;;;;;;34.70;20.90;;;7.90;99.90;;;;;;5071283;28;20254;-64
2021/12/11 06:13:34;;;;;;;33.23;21.13;;;7.90;99.90;;;;;;5071756;28;20197;-65
2021/12/11 06:16:02;;;;;;;35.30;20.93;;;7.90;99.90;;;;;;5091032;28;20208;-65
2021/12/11 06:18:29;;;;;;;35.83;21.13;;;8.00;99.90;;;;;;5078459;28;20227;-64
2021/12/11 06:20:56;;;;;;;35.20;21.07;;;7.90;99.90;;;;;;5071226;28;20232;-63
2021/12/11 06:23:23;;;;;;;38.33;20.73;;;7.90;99.90;;;;;;5075019;28;20196;-64
2021/12/11 06:25:53;;;;;;;37.53;20.97;;;7.90;99.90;;;;;;5087475;28;20193;-66
2021/12/11 06:28:21;;;;;;;37.47;21.27;;;7.90;99.90;;;;;;5086737;28;20189;-64
2021/12/11 06:30:48;;;;;;;31.53;19.57;;;7.90;99.90;;;;;;5091318;28;20207;-65
2021/12/11 06:33:15;;;;;;;33.97;20.03;;;7.90;99.90;;;;;;5082954;28;20620;-65
2021/12/11 06:35:48;;;;;;;36.47;20.17;;;8.00;99.90;;;;;;5070720;28;20208;-65
2021/12/11 06:38:21;;;;;;;30.47;19.00;;;7.90;99.90;;;;;;5071257;28;20233;-65
2021/12/11 06:40:49;;;;;;;31.60;19.03;;;8.00;99.90;;;;;;5072420;28;20189;-65
2021/12/11 06:43:17;;;;;;;31.40;20.10;;;8.00;99.90;;;;;;5074321;28;20216;-65
2021/12/11 06:45:45;;;;;;;33.97;19.63;;;8.00;99.90;;;;;;5074310;28;20224;-65
2021/12/11 06:48:13;;;;;;;32.90;19.30;;;8.00;99.90;;;;;;5074530;28;20278;-65
2021/12/11 06:50:40;;;;;;;35.13;20.27;;;8.00;99.90;;;;;;5074316;28;20237;-66
2021/12/11 06:53:11;;;;;;;30.50;18.60;;;8.00;99.90;;;;;;5074680;28;20662;-65
2021/12/11 06:55:38;;;;;;;32.27;18.57;;;8.00;99.90;;;;;;5093790;28;20215;-66
2021/12/11 06:58:06;;;;;;;34.97;19.10;;;8.00;99.90;;;;;;5094858;28;20667;-65
2021/12/11 07:00:34;;;;;;;29.87;18.97;;;8.00;99.90;;;;;;5094618;28;20212;-65
2021/12/11 07:03:01;;;;;;;33.33;19.07;;;8.00;99.90;;;;;;5094568;28;20224;-65
2021/12/11 07:05:28;;;;;;;29.80;19.27;;;8.00;99.90;;;;;;5076135;28;20232;-64
2021/12/11 07:07:55;;;;;;;30.00;18.23;;;8.00;99.90;;;;;;5074136;28;20208;-65
2021/12/11 07:10:23;;;;;;;36.23;20.00;;;8.00;99.90;;;;;;5074516;28;20212;-65
2021/12/11 07:12:51;;;;;;;31.83;18.70;;;8.00;99.90;;;;;;5075239;28;20653;-65
2021/12/11 07:15:19;;;;;;;31.57;19.73;;;8.00;99.90;;;;;;5074838;28;20220;-65
2021/12/11 07:17:47;;;;;;;32.43;18.90;;;7.90;99.90;;;;;;5094410;28;20261;-65
2021/12/11 07:20:16;;;;;;;31.70;18.13;;;7.90;99.90;;;;;;5094030;28;20239;-67
2021/12/11 07:22:43;;;;;;;29.33;19.40;;;7.90;99.90;;;;;;5094082;28;20710;-65
2021/12/11 07:25:17;;;;;;;34.13;19.80;;;7.90;99.90;;;;;;5094363;28;20207;-65
2021/12/11 07:27:45;;;;;;;29.30;18.20;;;7.90;99.90;;;;;;5093954;28;20265;-65
2021/12/11 07:30:12;;;;;;;28.57;18.23;;;8.00;99.90;;;;;;5093833;28;20212;-66
2021/12/11 07:32:39;;;;;;;27.33;18.10;;;8.00;99.90;;;;;;5093934;28;20204;-66
2021/12/11 07:35:09;;;;;;;28.20;18.70;;;8.00;99.90;;;;;;5089171;28;20207;-66
2021/12/11 07:37:36;;;;;;;32.83;19.07;;;8.00;99.90;;;;;;5094019;28;20204;-69
2021/12/11 07:40:04;;;;;;;32.27;19.90;;;8.00;99.90;;;;;;5093908;28;20203;-65
2021/12/11 07:42:31;;;;;;;34.33;19.03;;;7.90;99.90;;;;;;5093680;28;20224;-66
2021/12/11 07:44:58;;;;;;;32.17;19.07;;;7.90;99.90;;;;;;5090541;28;20204;-67
2021/12/11 07:47:25;;;;;;;33.60;19.23;;;7.90;99.90;;;;;;5073555;28;20234;-64
2021/12/11 07:49:52;;;;;;;32.40;19.50;;;7.90;99.90;;;;;;5073672;28;20212;-67
2021/12/11 07:52:20;;;;;;;32.20;19.17;;;7.90;99.90;;;;;;5072287;28;20243;-65
2021/12/11 07:54:47;;;;;;;34.23;19.00;;;8.00;99.90;;;;;;5073724;28;20204;-65
2021/12/11 07:57:14;;;;;;;31.70;19.07;;;8.00;99.90;;;;;;5093436;28;20212;-64
2021/12/11 07:59:40;;;;;;;34.20;19.60;;;8.00;99.90;;;;;;5093543;28;20205;-65
2021/12/11 08:02:07;;;;;;;30.33;19.17;;;8.00;99.90;;;;;;5093101;28;20220;-65
2021/12/11 08:04:34;;;;;;;35.53;20.20;;;8.00;99.90;;;;;;5093649;28;20203;-64
2021/12/11 08:07:01;;;;;;;37.37;19.73;;;8.00;99.90;;;;;;5090889;28;20612;-65
2021/12/11 08:09:30;;;;;;;32.43;20.37;;;8.00;99.90;;;;;;5093231;28;20724;-65
2021/12/11 08:11:57;;;;;;;34.30;19.80;;;8.00;99.90;;;;;;5093238;28;20695;-64
2021/12/11 08:14:25;;;;;;;34.63;20.27;;;8.00;99.90;;;;;;5093186;28;20568;-65
2021/12/11 08:16:56;;;;;;;36.57;20.27;;;8.00;99.90;;;;;;5075801;28;20592;-64
2021/12/11 08:19:27;;;;;;;31.63;19.17;;;8.00;99.90;;;;;;5072330;28;20221;-66
2021/12/11 08:21:57;;;;;;;36.60;20.90;;;7.90;99.90;;;;;;5072830;28;20212;-66
2021/12/11 08:24:26;;;;;;;37.17;20.53;;;7.90;99.90;;;;;;5072599;28;20211;-66
2021/12/11 08:26:57;;;;;;;40.03;23.37;;;7.90;99.90;;;;;;5089503;28;20200;-65
2021/12/11 08:29:24;;;;;;;35.53;20.63;;;7.90;99.90;;;;;;5092663;28;20218;-64
2021/12/11 08:31:54;;;;;;;34.07;21.00;;;7.90;99.90;;;;;;5082558;28;20204;-67
2021/12/11 08:34:23;;;;;;;37.07;22.03;;;7.90;99.90;;;;;;5072635;28;20189;-65
2021/12/11 08:36:51;;;;;;;38.33;21.03;;;7.80;99.90;;;;;;5073005;28;20540;-66
2021/12/11 08:39:18;;;;;;;36.23;19.90;;;7.80;99.90;;;;;;5072085;28;20203;-66
2021/12/11 08:41:48;;;;;;;33.37;19.90;;;7.80;99.90;;;;;;5072244;28;20232;-66
2021/12/11 08:44:17;;;;;;;37.13;21.50;;;7.70;99.90;;;;;;5072471;28;20408;-66
2021/12/11 08:46:48;;;;;;;33.43;21.00;;;7.70;99.90;;;;;;5079282;28;20249;-65
2021/12/11 08:49:23;;;;;;;33.57;20.33;;;7.70;99.90;;;;;;5092635;28;20203;-66
2021/12/11 08:51:53;;;;;;;30.83;18.90;;;7.60;99.90;;;;;;5092424;28;20223;-67
2021/12/11 08:54:21;;;;;;;35.87;20.67;;;7.60;99.90;;;;;;5092730;28;20283;-65
2021/12/11 08:56:50;;;;;;;31.37;18.57;;;7.60;99.90;;;;;;5085243;28;20645;-64
2021/12/11 08:59:21;;;;;;;27.93;17.60;;;7.60;99.90;;;;;;5073617;28;20213;-66
2021/12/11 09:01:53;;;;;;;30.60;18.53;;;7.50;99.90;;;;;;5092694;28;20235;-67
2021/12/11 09:04:26;;;;;;;30.67;18.43;;;7.50;99.90;;;;;;5071730;28;20188;-67
2021/12/11 09:06:58;;;;;;;29.40;16.87;;;7.50;99.90;;;;;;5071669;28;20204;-67
2021/12/11 09:09:29;;;;;;;29.67;17.97;;;7.50;99.90;;;;;;5071932;28;20188;-65
2021/12/11 09:12:02;;;;;;;28.77;18.13;;;7.40;99.90;;;;;;5072258;28;20193;-67
2021/12/11 09:14:34;;;;;;;27.57;17.20;;;7.40;99.90;;;;;;5070188;28;20672;-65
2021/12/11 09:17:06;;;;;;;28.47;17.27;;;7.40;99.90;;;;;;5072077;28;20777;-65
2021/12/11 09:19:36;;;;;;;29.00;18.10;;;7.40;99.90;;;;;;5071603;28;20568;-65
2021/12/11 09:22:08;;;;;;;28.57;17.67;;;7.40;99.90;;;;;;5071904;28;20216;-66
2021/12/11 09:24:39;;;;;;;31.53;19.20;;;7.40;99.90;;;;;;5088479;28;20192;-64
2021/12/11 09:27:11;;;;;;;30.73;18.70;;;7.30;99.90;;;;;;5092324;28;20192;-66
2021/12/11 09:29:44;;;;;;;27.03;17.30;;;7.40;99.90;;;;;;5086572;28;20239;-66
2021/12/11 09:32:17;;;;;;;26.90;18.57;;;7.40;99.90;;;;;;5071693;28;20195;-65
2021/12/11 09:34:47;;;;;;;29.50;18.27;;;7.40;99.90;;;;;;5091619;28;20207;-62
2021/12/11 09:37:15;;;;;;;30.47;18.27;;;7.30;99.90;;;;;;5091922;28;20199;-63
2021/12/11 09:39:47;;;;;;;28.47;17.50;;;7.30;99.90;;;;;;5091474;28;20578;-62
2021/12/11 09:42:14;;;;;;;33.10;18.03;;;7.30;99.90;;;;;;5091851;28;20208;-63
2021/12/11 09:44:46;;;;;;;34.60;18.33;;;7.30;99.90;;;;;;5072825;28;20197;-65
2021/12/11 09:47:16;;;;;;;33.87;18.27;;;7.30;99.90;;;;;;5071868;28;20300;-63
2021/12/11 09:49:46;;;;;;;32.30;18.97;;;7.30;99.90;;;;;;5071922;28;20193;-63
2021/12/11 09:52:23;;;;;;;31.33;17.77;;;7.30;99.90;;;;;;5071450;28;20317;-63
2021/12/11 09:54:59;;;;;;;28.27;17.17;;;7.30;99.90;;;;;;5085993;28;20192;-63
2021/12/11 09:57:29;;;;;;;36.10;20.13;;;7.20;99.90;;;;;;5090456;28;20195;-62
2021/12/11 10:00:00;;;;;;;32.50;19.23;;;7.20;99.90;;;;;;5092097;28;20188;-63
2021/12/11 10:02:31;;;;;;;34.50;19.47;;;7.20;99.90;;;;;;5091905;28;20633;-62
2021/12/11 10:05:08;;;;;;;37.37;20.40;;;7.10;99.90;;;;;;5091688;28;20189;-63
2021/12/11 10:07:39;;;;;;;32.77;18.87;;;7.10;99.90;;;;;;5086049;28;20529;-64
2021/12/11 10:10:14;;;;;;;32.50;20.10;;;7.10;99.90;;;;;;5081889;28;20644;-64
2021/12/11 10:12:45;;;;;;;31.90;19.03;;;7.10;99.90;;;;;;5086496;28;20196;-64
2021/12/11 10:15:18;;;;;;;34.27;19.27;;;7.10;99.90;;;;;;5091851;28;20196;-63
2021/12/11 10:17:48;;;;;;;36.70;20.50;;;7.10;99.90;;;;;;5095455;28;20200;-63
2021/12/11 10:20:19;;;;;;;32.93;19.70;;;7.10;99.90;;;;;;5077348;28;20204;-64
2021/12/11 10:22:47;;;;;;;35.93;20.00;;;7.10;99.90;;;;;;5076357;28;20213;-63
2021/12/11 10:25:17;;;;;;;35.30;21.03;;;7.10;99.90;;;;;;5075238;28;20227;-64
2021/12/11 10:27:44;;;;;;;36.83;20.10;;;7.10;99.90;;;;;;5074973;28;20691;-62
2021/12/11 10:30:18;;;;;;;34.80;20.07;;;7.10;99.90;;;;;;5074978;28;20201;-64
2021/12/11 10:32:45;;;;;;;36.50;20.00;;;7.10;99.90;;;;;;5094099;28;20200;-63
2021/12/11 10:35:15;;;;;;;35.17;19.90;;;7.10;99.90;;;;;;5095061;28;20222;-64
2021/12/11 10:37:42;;;;;;;32.43;18.30;;;7.10;99.90;;;;;;5088237;28;20227;-63
2021/12/11 10:40:15;;;;;;;31.60;19.30;;;7.00;99.90;;;;;;5094676;28;20301;-63
2021/12/11 10:42:43;;;;;;;32.30;17.87;;;7.10;99.90;;;;;;5055276;28;20217;-63
2021/12/11 10:45:13;;;;;;;32.93;16.90;;;7.10;99.90;;;;;;5054202;28;20323;-63
2021/12/11 10:47:44;;;;;;;29.87;15.87;;;7.10;99.90;;;;;;5062846;28;20212;-62
2021/12/11 10:50:15;;;;;;;29.37;16.40;;;7.00;99.90;;;;;;5075248;28;20193;-62
2021/12/11 10:52:42;;;;;;;25.23;14.80;;;7.00;99.90;;;;;;5094660;28;20184;-63
2021/12/11 10:55:13;;;;;;;29.47;15.30;;;7.00;99.90;;;;;;5094186;28;20304;-63
2021/12/11 10:57:40;;;;;;;26.27;15.97;;;7.00;99.90;;;;;;5094556;28;20199;-64
2021/12/11 11:00:14;;;;;;;28.67;16.27;;;7.00;99.90;;;;;;5090255;28;20196;-63
2021/12/11 11:02:43;;;;;;;28.20;15.53;;;7.00;99.90;;;;;;5073729;28;20204;-64
2021/12/11 11:05:13;;;;;;;28.50;15.80;;;6.90;99.90;;;;;;5078190;28;20192;-65
2021/12/11 11:07:40;;;;;;;27.40;16.13;;;6.90;99.90;;;;;;5092846;28;20208;-63
2021/12/11 11:10:13;;;;;;;26.13;16.30;;;6.90;99.90;;;;;;5093823;28;20361;-63
2021/12/11 11:12:41;;;;;;;30.63;17.27;;;6.80;99.90;;;;;;5094416;28;20191;-64
2021/12/11 11:15:11;;;;;;;30.07;16.87;;;6.80;99.90;;;;;;5094316;28;20200;-64
2021/12/11 11:17:38;;;;;;;26.47;15.60;;;6.80;99.90;;;;;;5093116;28;20207;-63
2021/12/11 11:20:10;;;;;;;30.27;16.70;;;6.80;99.90;;;;;;5090325;28;20201;-64
2021/12/11 11:22:40;;;;;;;26.63;14.00;;;6.80;99.90;;;;;;5089468;28;20211;-69
2021/12/11 11:25:11;;;;;;;27.63;15.27;;;6.80;99.90;;;;;;5093589;28;20215;-62
2021/12/11 11:27:38;;;;;;;24.60;14.60;;;6.80;99.90;;;;;;5084287;28;20193;-63
2021/12/11 11:30:08;;;;;;;21.63;12.27;;;6.80;99.90;;;;;;5073804;28;20224;-61
2021/12/11 11:32:35;;;;;;;21.30;12.53;;;6.80;99.90;;;;;;5073630;28;20272;-64
2021/12/11 11:35:04;;;;;;;20.53;12.80;;;6.80;99.90;;;;;;5073915;28;20201;-65
2021/12/11 11:37:35;;;;;;;19.80;12.00;;;6.80;99.90;;;;;;5073909;28;20208;-62
2021/12/11 11:40:05;;;;;;;18.20;11.17;;;6.80;99.90;;;;;;5073043;28;20315;-63
2021/12/11 11:42:32;;;;;;;19.67;11.77;;;6.80;99.90;;;;;;5074118;28;20231;-62
2021/12/11 11:44:59;;;;;;;22.37;11.70;;;6.80;99.90;;;;;;5073251;28;20209;-64
2021/12/11 11:47:26;;;;;;;17.10;11.73;;;6.80;99.90;;;;;;5073216;28;20219;-65
2021/12/11 11:49:58;;;;;;;18.93;11.77;;;6.70;99.90;;;;;;5072707;28;20215;-65
2021/12/11 11:52:25;;;;;;;18.97;12.10;;;6.80;99.90;;;;;;5072851;28;20232;-63
2021/12/11 11:54:59;;;;;;;18.63;11.83;;;6.70;99.90;;;;;;5072855;28;20296;-65
2021/12/11 11:57:31;;;;;;;19.10;11.27;;;6.80;99.90;;;;;;5073454;28;20193;-62
2021/12/11 12:00:00;;;;;;;17.73;11.73;;;6.80;99.90;;;;;;5073453;28;20193;-64
2021/12/11 12:02:30;;;;;;;20.60;12.03;;;6.80;99.90;;;;;;5073264;28;20208;-62
2021/12/11 12:05:00;;;;;;;18.27;11.37;;;6.80;99.90;;;;;;5072816;28;20200;-63
2021/12/11 12:07:29;;;;;;;21.43;12.07;;;6.80;99.90;;;;;;5073514;28;20215;-64
2021/12/11 12:10:00;;;;;;;18.57;11.90;;;6.80;99.90;;;;;;5072478;28;20240;-62
2021/12/11 12:12:28;;;;;;;18.23;11.67;;;6.90;99.90;;;;;;5072856;28;20231;-63
2021/12/11 12:14:58;;;;;;;18.40;11.77;;;6.90;99.90;;;;;;5072885;28;20205;-62
2021/12/11 12:17:27;;;;;;;19.03;11.63;;;6.90;99.90;;;;;;5073090;28;20211;-63
2021/12/11 12:19:55;;;;;;;18.57;12.20;;;6.90;99.90;;;;;;5072646;28;20640;-64
2021/12/11 12:22:24;;;;;;;23.47;13.30;;;6.90;99.90;;;;;;5072807;28;20207;-63
2021/12/11 12:24:53;;;;;;;21.37;12.73;;;6.90;99.90;;;;;;5072516;28;20211;-62
2021/12/11 12:27:24;;;;;;;17.53;12.17;;;6.90;99.90;;;;;;5073483;28;20657;-63
2021/12/11 12:29:52;;;;;;;19.47;12.83;;;6.80;99.90;;;;;;5072231;28;20732;-62
2021/12/11 12:32:22;;;;;;;24.07;13.07;;;6.80;99.90;;;;;;5072378;28;20208;-63
2021/12/11 12:34:51;;;;;;;21.73;12.87;;;6.80;99.90;;;;;;5073359;28;20188;-63
2021/12/11 12:37:20;;;;;;;20.87;13.33;;;6.80;99.90;;;;;;5082902;28;20206;-62
2021/12/11 12:39:51;;;;;;;19.07;12.53;;;6.90;99.90;;;;;;5090319;28;20211;-64
2021/12/11 12:42:27;;;;;;;19.07;12.03;;;6.80;99.90;;;;;;5079022;28;20200;-64
2021/12/11 12:44:59;;;;;;;20.33;12.50;;;6.80;99.90;;;;;;5086410;28;20199;-62
2021/12/11 12:47:29;;;;;;;18.70;11.67;;;6.80;99.90;;;;;;5089055;28;20696;-63
2021/12/11 12:49:58;;;;;;;17.23;11.70;;;6.80;99.90;;;;;;5080885;28;20192;-63
2021/12/11 12:52:33;;;;;;;20.70;12.23;;;6.80;99.90;;;;;;5077322;28;20716;-63